Time;durP1;ratioP1;P1;durP2;ratioP2;P2;SDS_P1;SDS_P2;PMS_P1;PMS_P2;Temp;Humidity;BMP_temperature;BMP_pressure;BME280_temperature;BME280_humidity;BME280_pressure;Samples;Min_cycle;Max_cycle;Signal;HPM_P1;HPM_P2
2024/03/04 00:00:12;;;;;;;10.88;5.68;;;2.90;99.90;;;;;;5085627;28;20043;-45
2024/03/04 00:02:38;;;;;;;10.10;6.05;;;2.90;99.90;;;;;;5085090;28;20020;-45
2024/03/04 00:05:04;;;;;;;9.00;5.80;;;2.90;99.90;;;;;;5084345;28;20107;-45
2024/03/04 00:07:30;;;;;;;7.68;4.80;;;2.80;99.90;;;;;;5085309;28;20044;-45
2024/03/04 00:09:55;;;;;;;10.63;5.80;;;2.80;99.90;;;;;;5087949;28;20032;-45
2024/03/04 00:12:21;;;;;;;10.10;5.60;;;2.80;99.90;;;;;;5089635;28;20178;-45
2024/03/04 00:14:47;;;;;;;7.05;5.18;;;2.70;99.90;;;;;;5089437;28;20056;-46
2024/03/04 00:17:12;;;;;;;9.85;5.90;;;2.70;99.90;;;;;;5089411;28;20065;-44
2024/03/04 00:19:38;;;;;;;8.80;5.40;;;2.70;99.90;;;;;;5089212;28;20233;-45
2024/03/04 00:22:04;;;;;;;9.95;5.32;;;2.70;99.90;;;;;;5089216;28;20032;-45
2024/03/04 00:24:32;;;;;;;10.75;5.75;;;2.70;99.90;;;;;;5105886;28;20102;-44
2024/03/04 00:26:58;;;;;;;9.93;4.95;;;2.60;99.90;;;;;;5109198;28;20028;-45
2024/03/04 00:29:23;;;;;;;8.48;4.53;;;2.60;99.90;;;;;;5109417;28;20039;-44
2024/03/04 00:31:49;;;;;;;10.32;5.18;;;2.60;99.90;;;;;;5109462;28;20020;-45
2024/03/04 00:34:15;;;;;;;9.80;5.03;;;2.60;99.90;;;;;;5108920;28;20040;-44
2024/03/04 00:36:41;;;;;;;7.68;4.95;;;2.60;99.90;;;;;;5108890;28;20064;-44
2024/03/04 00:39:09;;;;;;;9.02;4.45;;;2.60;99.90;;;;;;5109044;28;20028;-44
2024/03/04 00:41:35;;;;;;;9.15;4.88;;;2.60;99.90;;;;;;5109397;28;20034;-46
2024/03/04 00:44:00;;;;;;;7.93;4.95;;;2.60;99.90;;;;;;5109193;28;20059;-44
2024/03/04 00:46:26;;;;;;;8.90;4.50;;;2.60;99.90;;;;;;5109146;28;20024;-46
2024/03/04 00:48:52;;;;;;;9.43;4.90;;;2.60;99.90;;;;;;5108905;28;20055;-45
2024/03/04 00:51:18;;;;;;;10.52;5.10;;;2.60;99.90;;;;;;5108978;28;20032;-45
2024/03/04 00:53:47;;;;;;;7.78;4.53;;;2.60;99.90;;;;;;5108779;28;20020;-44
2024/03/04 00:56:13;;;;;;;8.23;5.13;;;2.60;99.90;;;;;;5108993;28;20087;-44
2024/03/04 00:58:40;;;;;;;9.15;4.78;;;2.60;99.90;;;;;;5108962;28;20095;-44
2024/03/04 01:01:05;;;;;;;9.88;4.82;;;2.60;99.90;;;;;;5108622;28;20173;-45
2024/03/04 01:03:32;;;;;;;5.88;4.00;;;2.50;99.90;;;;;;5107795;28;20024;-45
2024/03/04 01:05:59;;;;;;;7.32;3.97;;;2.50;99.90;;;;;;5108269;28;20032;-45
2024/03/04 01:08:25;;;;;;;7.65;3.85;;;2.50;99.90;;;;;;5108308;28;20020;-45
2024/03/04 01:10:53;;;;;;;6.72;4.20;;;2.50;99.90;;;;;;5108362;28;20376;-46
2024/03/04 01:13:22;;;;;;;8.88;4.07;;;2.40;99.90;;;;;;5108625;28;20090;-45
2024/03/04 01:15:48;;;;;;;6.65;3.90;;;2.40;99.90;;;;;;5108373;28;20080;-45
2024/03/04 01:18:14;;;;;;;6.97;4.18;;;2.40;99.90;;;;;;5108637;28;20024;-45
2024/03/04 01:20:46;;;;;;;5.68;3.72;;;2.40;99.90;;;;;;5107361;28;20028;-45
2024/03/04 01:23:12;;;;;;;7.20;3.80;;;2.30;99.90;;;;;;5108138;28;20052;-45
2024/03/04 01:25:41;;;;;;;7.72;3.45;;;2.30;99.90;;;;;;5108272;28;20055;-45
2024/03/04 01:28:07;;;;;;;8.53;4.27;;;2.40;99.90;;;;;;5108358;28;20240;-45
2024/03/04 01:30:32;;;;;;;6.70;4.03;;;2.40;99.90;;;;;;5108386;28;20284;-45
2024/03/04 01:32:59;;;;;;;6.68;3.65;;;2.40;99.90;;;;;;5108268;28;20028;-45
2024/03/04 01:35:26;;;;;;;5.65;3.70;;;2.50;99.90;;;;;;5108102;28;20036;-45
2024/03/04 01:37:52;;;;;;;8.23;4.35;;;2.40;99.90;;;;;;5108128;28;20019;-45
2024/03/04 01:40:18;;;;;;;6.63;3.90;;;2.40;99.90;;;;;;5108172;28;20028;-45
2024/03/04 01:42:46;;;;;;;5.70;3.35;;;2.40;99.90;;;;;;5108111;28;20024;-45
2024/03/04 01:45:31;;;;;;;5.38;3.05;;;2.40;99.90;;;;;;5108011;28;20027;-44
2024/03/04 01:48:00;;;;;;;6.85;3.30;;;2.40;99.90;;;;;;5108447;28;20069;-46
2024/03/04 01:50:28;;;;;;;6.43;3.20;;;2.40;99.90;;;;;;5107956;28;20020;-44
2024/03/04 01:52:56;;;;;;;7.18;3.33;;;2.40;99.90;;;;;;5106992;28;20027;-45
2024/03/04 01:55:22;;;;;;;6.40;3.45;;;2.40;99.90;;;;;;5107928;28;20215;-47
2024/03/04 01:57:48;;;;;;;6.90;3.80;;;2.40;99.90;;;;;;5106868;28;20061;-44
2024/03/04 02:00:14;;;;;;;6.70;3.45;;;2.40;99.90;;;;;;5089964;28;20185;-46
2024/03/04 02:02:40;;;;;;;5.80;3.38;;;2.40;99.90;;;;;;5107785;28;20099;-45
2024/03/04 02:05:09;;;;;;;5.15;3.13;;;2.40;99.90;;;;;;5106389;28;20039;-45
2024/03/04 02:07:38;;;;;;;5.32;3.22;;;2.40;99.90;;;;;;5107457;28;20102;-45
2024/03/04 02:10:07;;;;;;;5.68;3.22;;;2.40;99.90;;;;;;5106530;28;20047;-45
2024/03/04 02:12:39;;;;;;;7.70;3.30;;;2.40;99.90;;;;;;5089504;28;20036;-45
2024/03/04 02:15:06;;;;;;;6.15;3.20;;;2.40;99.90;;;;;;5106420;28;20205;-46
2024/03/04 02:17:31;;;;;;;5.95;3.30;;;2.40;99.90;;;;;;5107316;28;20021;-46
2024/03/04 02:20:03;;;;;;;5.68;3.40;;;2.40;99.90;;;;;;5107504;28;20228;-46
2024/03/04 02:22:29;;;;;;;5.00;2.97;;;2.40;99.90;;;;;;5107196;28;20031;-46
2024/03/04 02:24:55;;;;;;;5.45;3.28;;;2.30;99.90;;;;;;5089728;28;20103;-45
2024/03/04 02:27:23;;;;;;;6.40;3.20;;;2.30;99.90;;;;;;5107197;28;20081;-46
2024/03/04 02:29:49;;;;;;;5.35;2.97;;;2.30;99.90;;;;;;5107070;28;20301;-45
2024/03/04 02:32:17;;;;;;;5.88;3.22;;;2.30;99.90;;;;;;5106855;28;20034;-45
2024/03/04 02:34:45;;;;;;;5.68;3.10;;;2.30;99.90;;;;;;5107063;28;20040;-46
2024/03/04 02:37:11;;;;;;;6.95;3.70;;;2.20;99.90;;;;;;5107180;28;20024;-45
2024/03/04 02:39:37;;;;;;;5.03;3.20;;;2.20;99.90;;;;;;5106084;28;20060;-45
2024/03/04 02:42:03;;;;;;;4.82;3.13;;;2.20;99.90;;;;;;5106518;28;20028;-46
2024/03/04 02:44:30;;;;;;;6.65;3.20;;;2.20;99.90;;;;;;5105933;28;20194;-46
2024/03/04 02:46:56;;;;;;;5.88;2.95;;;2.20;99.90;;;;;;5106001;28;20281;-45
2024/03/04 02:49:21;;;;;;;5.70;3.10;;;2.20;99.90;;;;;;5106789;28;20112;-46
2024/03/04 02:51:47;;;;;;;7.20;3.03;;;2.20;99.90;;;;;;5106663;28;20188;-46
2024/03/04 02:54:13;;;;;;;5.75;3.10;;;2.20;99.90;;;;;;5106654;28;20024;-46
2024/03/04 02:56:39;;;;;;;6.15;3.50;;;2.20;99.90;;;;;;5106751;28;20052;-48
2024/03/04 02:59:04;;;;;;;5.00;2.65;;;2.20;99.90;;;;;;5106210;28;20043;-45
2024/03/04 03:01:30;;;;;;;4.30;2.80;;;2.20;99.90;;;;;;5106539;28;20026;-46
2024/03/04 03:03:56;;;;;;;6.63;3.15;;;2.20;99.90;;;;;;5106482;28;20024;-47
2024/03/04 03:06:22;;;;;;;7.75;3.60;;;2.20;99.90;;;;;;5106590;28;20055;-45
2024/03/04 03:08:49;;;;;;;5.95;3.08;;;2.20;99.90;;;;;;5106566;28;20024;-46
2024/03/04 03:11:16;;;;;;;9.18;3.53;;;2.20;99.90;;;;;;5106130;28;20032;-45
2024/03/04 03:13:44;;;;;;;5.22;2.85;;;2.20;99.90;;;;;;5106179;28;20040;-46
2024/03/04 03:16:19;;;;;;;6.03;3.13;;;2.20;99.90;;;;;;5106340;28;20073;-46
2024/03/04 03:18:45;;;;;;;7.20;3.30;;;2.20;99.90;;;;;;5106377;28;20308;-46
2024/03/04 03:21:12;;;;;;;7.07;3.90;;;2.20;99.90;;;;;;5106255;28;20024;-45
2024/03/04 03:23:40;;;;;;;6.57;3.35;;;2.20;99.90;;;;;;5106019;28;20067;-46
2024/03/04 03:26:06;;;;;;;5.32;3.10;;;2.10;99.90;;;;;;5106202;28;20032;-46
2024/03/04 03:28:32;;;;;;;7.68;3.00;;;2.20;99.90;;;;;;5106169;28;20040;-46
2024/03/04 03:30:57;;;;;;;5.75;3.00;;;2.20;99.90;;;;;;5105796;28;20055;-45
2024/03/04 03:33:23;;;;;;;9.23;3.17;;;2.20;99.90;;;;;;5106093;28;20036;-46
2024/03/04 03:35:48;;;;;;;5.85;3.80;;;2.20;99.90;;;;;;5106014;28;20024;-45
2024/03/04 03:38:14;;;;;;;7.13;3.70;;;2.20;99.90;;;;;;5106173;28;20034;-45
2024/03/04 03:40:40;;;;;;;6.28;3.35;;;2.20;99.90;;;;;;5106072;28;20036;-46
2024/03/04 03:43:05;;;;;;;5.30;3.00;;;2.20;99.90;;;;;;5105690;28;20028;-46
2024/03/04 03:45:33;;;;;;;7.90;3.65;;;2.10;99.90;;;;;;5105211;28;20028;-46
2024/03/04 03:47:59;;;;;;;6.95;2.97;;;2.20;99.90;;;;;;5105978;28;20043;-46
2024/03/04 03:50:24;;;;;;;6.32;3.28;;;2.20;99.90;;;;;;5105957;28;20028;-45
2024/03/04 03:52:50;;;;;;;6.03;3.03;;;2.20;99.90;;;;;;5105562;28;20091;-46
2024/03/04 03:55:16;;;;;;;5.82;2.83;;;2.10;99.90;;;;;;5105959;28;20243;-45
2024/03/04 03:57:42;;;;;;;7.18;3.67;;;2.10;99.90;;;;;;5105705;28;20023;-45
2024/03/04 04:00:10;;;;;;;6.47;3.58;;;2.10;99.90;;;;;;5105802;28;20028;-45
2024/03/04 04:02:36;;;;;;;4.75;3.00;;;2.00;99.90;;;;;;5105960;28;20031;-46
2024/03/04 04:05:02;;;;;;;7.00;3.63;;;2.00;99.90;;;;;;5105718;28;20289;-46
2024/03/04 04:07:28;;;;;;;6.57;3.60;;;2.10;99.90;;;;;;5105573;28;20027;-45
2024/03/04 04:09:54;;;;;;;4.53;2.90;;;2.10;99.90;;;;;;5105752;28;20050;-45
2024/03/04 04:12:19;;;;;;;5.28;2.80;;;2.00;99.90;;;;;;5105826;28;20028;-46
2024/03/04 04:14:45;;;;;;;5.60;2.90;;;2.00;99.90;;;;;;5105565;28;20036;-47
2024/03/04 04:17:12;;;;;;;4.85;2.85;;;2.00;99.90;;;;;;5105457;28;20081;-46
2024/03/04 04:19:39;;;;;;;7.57;2.50;;;2.00;99.90;;;;;;5105755;28;20020;-45
2024/03/04 04:22:05;;;;;;;6.72;2.88;;;2.00;99.90;;;;;;5105662;28;20036;-45
2024/03/04 04:24:31;;;;;;;6.00;2.83;;;2.00;99.90;;;;;;5104953;28;20048;-46
2024/03/04 04:26:57;;;;;;;4.65;2.53;;;2.00;99.90;;;;;;5105497;28;20108;-46
2024/03/04 04:29:23;;;;;;;6.03;2.80;;;2.00;99.90;;;;;;5105555;28;20036;-46
2024/03/04 04:31:48;;;;;;;5.60;2.97;;;2.00;99.90;;;;;;5105395;28;20040;-47
2024/03/04 04:34:14;;;;;;;6.00;2.35;;;2.00;99.90;;;;;;5087477;28;20024;-46
2024/03/04 04:36:48;;;;;;;6.75;2.80;;;2.00;99.90;;;;;;5105545;28;20052;-45
2024/03/04 04:39:14;;;;;;;5.80;2.78;;;2.00;99.90;;;;;;5105417;28;20089;-46
2024/03/04 04:41:39;;;;;;;4.97;2.50;;;2.00;99.90;;;;;;5105665;28;20023;-46
2024/03/04 04:44:05;;;;;;;5.07;2.95;;;2.00;99.90;;;;;;5105376;28;20077;-45
2024/03/04 04:46:31;;;;;;;5.90;2.67;;;2.00;99.90;;;;;;5105374;28;20043;-46
2024/03/04 04:48:57;;;;;;;5.95;2.33;;;2.00;99.90;;;;;;5105063;28;20028;-46
2024/03/04 04:51:23;;;;;;;5.45;2.25;;;2.00;99.90;;;;;;5105348;28;20034;-45
2024/03/04 04:53:49;;;;;;;5.20;2.13;;;1.90;99.90;;;;;;5105135;28;20031;-46
2024/03/04 04:56:17;;;;;;;3.38;2.05;;;1.90;99.90;;;;;;5108295;28;20020;-45
2024/03/04 04:58:43;;;;;;;3.45;1.95;;;1.90;99.90;;;;;;5109059;28;20065;-45
2024/03/04 05:01:54;;;;;;;3.45;1.92;;;1.90;99.90;;;;;;5108684;28;20039;-45
2024/03/04 05:04:20;;;;;;;4.57;2.15;;;1.90;99.90;;;;;;5108823;28;20028;-45
2024/03/04 05:06:46;;;;;;;5.05;2.35;;;2.00;99.90;;;;;;5108320;28;20077;-45
2024/03/04 05:09:12;;;;;;;3.95;2.00;;;2.00;99.90;;;;;;5108743;28;20024;-45
2024/03/04 05:11:37;;;;;;;4.90;2.28;;;2.00;99.90;;;;;;5108617;28;20024;-45
2024/03/04 05:14:03;;;;;;;4.57;2.35;;;2.00;99.90;;;;;;5108567;28;20044;-45
2024/03/04 05:16:31;;;;;;;4.35;1.90;;;2.00;99.90;;;;;;5108625;28;20023;-46
2024/03/04 05:18:57;;;;;;;4.22;2.08;;;2.00;99.90;;;;;;5108648;28;20024;-45
2024/03/04 05:21:23;;;;;;;3.53;2.17;;;1.90;99.90;;;;;;5108338;28;20039;-46
2024/03/04 05:23:48;;;;;;;3.97;1.73;;;1.90;99.90;;;;;;5108099;28;20110;-46
2024/03/04 05:26:14;;;;;;;3.65;1.80;;;1.90;99.90;;;;;;5109098;28;20028;-45
2024/03/04 05:28:40;;;;;;;6.35;1.95;;;2.00;99.90;;;;;;5107456;28;20044;-46
2024/03/04 05:31:06;;;;;;;3.85;1.85;;;1.90;99.90;;;;;;5108130;28;20073;-45
2024/03/04 05:33:32;;;;;;;4.30;1.70;;;2.00;99.90;;;;;;5108173;28;20016;-46
2024/03/04 05:35:59;;;;;;;2.92;1.58;;;2.10;99.90;;;;;;5108176;28;20035;-45
2024/03/04 05:38:25;;;;;;;4.20;1.50;;;2.10;99.90;;;;;;5107710;28;20028;-45
2024/03/04 05:40:51;;;;;;;3.22;1.30;;;2.10;99.90;;;;;;5107927;28;20028;-45
2024/03/04 05:43:16;;;;;;;3.38;1.77;;;2.00;99.90;;;;;;5107191;28;20047;-45
2024/03/04 05:45:42;;;;;;;4.55;1.70;;;2.10;99.90;;;;;;5107996;28;20024;-47
2024/03/04 05:48:08;;;;;;;3.28;1.80;;;2.10;99.90;;;;;;5108013;28;20095;-46
2024/03/04 05:50:33;;;;;;;3.80;1.70;;;2.30;99.90;;;;;;5107977;28;20167;-47
2024/03/04 05:52:59;;;;;;;3.67;1.83;;;2.30;99.90;;;;;;5107811;28;20028;-47
2024/03/04 05:55:26;;;;;;;3.80;1.67;;;2.20;99.90;;;;;;5107655;28;20057;-45
2024/03/04 05:57:52;;;;;;;2.22;1.50;;;2.30;99.90;;;;;;5107839;28;20024;-46
2024/03/04 06:00:19;;;;;;;3.40;1.92;;;2.30;99.90;;;;;;5107851;28;20104;-45
2024/03/04 06:02:44;;;;;;;4.15;1.95;;;2.30;99.90;;;;;;5107790;28;20050;-46
2024/03/04 06:05:13;;;;;;;3.08;1.50;;;2.30;99.90;;;;;;5107795;28;20028;-47
2024/03/04 06:07:40;;;;;;;3.13;1.40;;;2.30;99.90;;;;;;5106670;28;20035;-46
2024/03/04 06:10:06;;;;;;;2.15;1.40;;;2.30;99.90;;;;;;5107296;28;20030;-47
2024/03/04 06:12:32;;;;;;;4.05;1.80;;;2.30;99.90;;;;;;5107440;28;20051;-46
2024/03/04 06:14:57;;;;;;;2.72;1.60;;;2.30;99.90;;;;;;5107067;28;20031;-46
2024/03/04 06:17:23;;;;;;;3.53;2.00;;;2.30;99.90;;;;;;5089405;28;20147;-45
2024/03/04 06:19:49;;;;;;;2.80;1.38;;;2.40;99.90;;;;;;5107370;28;20072;-45
2024/03/04 06:22:15;;;;;;;2.80;1.60;;;2.30;99.90;;;;;;5107364;28;20031;-45
2024/03/04 06:24:41;;;;;;;3.60;2.10;;;2.40;99.90;;;;;;5106684;28;20310;-46
2024/03/04 06:27:07;;;;;;;3.70;2.00;;;2.40;99.90;;;;;;5106781;28;20032;-45
2024/03/04 06:29:33;;;;;;;3.13;1.98;;;2.40;99.90;;;;;;5107075;28;20056;-46
2024/03/04 06:32:02;;;;;;;4.38;2.13;;;2.40;99.90;;;;;;5107312;28;20019;-45
2024/03/04 06:34:31;;;;;;;5.68;2.13;;;2.40;99.90;;;;;;5106996;28;20103;-45
2024/03/04 06:36:57;;;;;;;3.35;1.75;;;2.40;99.90;;;;;;5107136;28;20024;-46
2024/03/04 06:39:23;;;;;;;3.45;1.80;;;2.40;99.90;;;;;;5106753;28;20091;-45
2024/03/04 06:41:49;;;;;;;5.57;3.83;;;2.40;99.90;;;;;;5106445;28;20324;-45
2024/03/04 06:44:15;;;;;;;5.70;2.60;;;2.40;99.90;;;;;;5107422;28;20085;-46
2024/03/04 06:46:41;;;;;;;4.50;2.33;;;2.40;99.90;;;;;;5106670;28;20042;-46
2024/03/04 06:49:06;;;;;;;4.22;2.50;;;2.40;99.90;;;;;;5106650;28;20169;-45
2024/03/04 06:51:35;;;;;;;6.60;2.70;;;2.40;99.90;;;;;;5106494;28;20281;-46
2024/03/04 06:54:07;;;;;;;6.55;4.07;;;2.40;99.90;;;;;;5106457;28;20316;-45
2024/03/04 06:56:33;;;;;;;4.35;2.80;;;2.40;99.90;;;;;;5106302;28;20028;-46
2024/03/04 06:58:59;;;;;;;6.05;2.97;;;2.40;99.90;;;;;;5106893;28;20262;-47
2024/03/04 07:01:25;;;;;;;4.68;2.10;;;2.40;99.90;;;;;;5105755;28;20079;-46
2024/03/04 07:03:51;;;;;;;5.18;2.15;;;2.40;99.90;;;;;;5105338;28;20028;-45
2024/03/04 07:06:16;;;;;;;6.05;2.33;;;2.40;99.90;;;;;;5106391;28;20036;-47
2024/03/04 07:08:42;;;;;;;4.47;2.15;;;2.40;99.90;;;;;;5106498;28;20077;-46
2024/03/04 07:11:12;;;;;;;5.00;2.20;;;2.40;99.90;;;;;;5106217;28;20054;-46
2024/03/04 07:13:38;;;;;;;;;;;2.40;99.90;;;;;;5106372;28;20035;-47
2024/03/04 07:16:06;;;;;;;4.47;2.10;;;2.40;99.90;;;;;;5106274;28;19904;-47
2024/03/04 07:18:31;;;;;;;4.45;3.08;;;2.50;99.90;;;;;;5106191;28;20031;-45
2024/03/04 07:20:58;;;;;;;4.32;2.38;;;2.60;99.90;;;;;;5106718;28;20035;-46
2024/03/04 07:23:24;;;;;;;4.35;2.00;;;2.70;99.90;;;;;;5105610;28;20309;-46
2024/03/04 07:25:49;;;;;;;6.75;2.50;;;2.70;99.90;;;;;;5106094;28;20096;-45
2024/03/04 07:28:15;;;;;;;4.55;2.63;;;2.70;99.90;;;;;;5106235;28;20024;-45
2024/03/04 07:30:40;;;;;;;7.10;2.60;;;2.80;99.90;;;;;;5105690;28;20070;-45
2024/03/04 07:33:08;;;;;;;4.35;2.75;;;2.90;99.90;;;;;;5105851;28;20091;-45
2024/03/04 07:35:34;;;;;;;4.13;3.03;;;3.00;99.90;;;;;;5105709;28;20027;-45
2024/03/04 07:38:00;;;;;;;5.00;3.45;;;3.30;99.90;;;;;;5106108;28;20024;-45
2024/03/04 07:40:26;;;;;;;4.57;2.30;;;3.70;99.90;;;;;;5105806;28;20047;-45
2024/03/04 07:42:51;;;;;;;2.97;1.45;;;4.20;99.90;;;;;;5105251;28;20038;-45
2024/03/04 07:45:17;;;;;;;3.92;1.80;;;4.80;99.90;;;;;;5106027;28;20087;-46
2024/03/04 07:47:42;;;;;;;3.45;2.13;;;5.20;99.90;;;;;;5105785;28;20066;-46
2024/03/04 07:50:08;;;;;;;4.88;2.17;;;5.70;99.90;;;;;;5105722;28;20035;-45
2024/03/04 07:52:34;;;;;;;3.55;2.15;;;5.60;99.90;;;;;;5105638;28;20055;-46
2024/03/04 07:55:01;;;;;;;4.38;2.30;;;5.30;99.90;;;;;;5105593;28;20032;-46
2024/03/04 07:57:27;;;;;;;3.08;2.30;;;5.70;99.90;;;;;;5105541;28;20024;-47
2024/03/04 07:59:53;;;;;;;3.65;1.80;;;6.00;99.90;;;;;;5105712;28;20039;-47
2024/03/04 08:02:18;;;;;;;4.68;2.70;;;6.40;99.90;;;;;;5105265;28;20032;-45
2024/03/04 08:04:44;;;;;;;6.22;2.50;;;6.60;99.90;;;;;;5105544;28;20097;-45
2024/03/04 08:07:10;;;;;;;4.97;3.22;;;6.30;99.90;;;;;;5105552;28;20028;-45
2024/03/04 08:09:36;;;;;;;4.50;2.85;;;6.00;99.90;;;;;;5105470;28;20106;-46
2024/03/04 08:12:04;;;;;;;5.22;4.20;;;5.70;99.90;;;;;;5105637;28;20225;-45
2024/03/04 08:14:29;;;;;;;5.85;3.92;;;5.50;99.90;;;;;;5105453;28;20028;-46
2024/03/04 08:16:55;;;;;;;5.03;3.47;;;5.40;99.90;;;;;;5105393;28;20185;-46
2024/03/04 08:19:21;;;;;;;5.50;3.03;;;5.20;99.90;;;;;;5105187;28;20020;-45
2024/03/04 08:21:47;;;;;;;5.95;3.50;;;5.10;99.90;;;;;;5105189;28;20043;-45
2024/03/04 08:24:13;;;;;;;3.67;2.72;;;5.10;99.90;;;;;;5104503;28;20092;-45
2024/03/04 08:26:38;;;;;;;7.35;3.75;;;5.20;99.90;;;;;;5105400;28;20032;-46
2024/03/04 08:29:04;;;;;;;20.27;9.43;;;5.30;99.90;;;;;;5104996;28;20024;-45
2024/03/04 08:31:31;;;;;;;34.63;16.33;;;5.50;99.90;;;;;;5108712;28;20193;-45
2024/03/04 08:33:57;;;;;;;13.18;7.40;;;6.00;99.90;;;;;;5109042;28;20099;-45
2024/03/04 08:36:22;;;;;;;15.95;8.00;;;6.50;99.90;;;;;;5109285;28;20032;-48
2024/03/04 08:38:48;;;;;;;18.73;10.25;;;7.00;99.90;;;;;;5109095;28;20099;-46
2024/03/04 08:41:15;;;;;;;27.20;12.85;;;7.30;99.90;;;;;;5108998;28;20024;-48
2024/03/04 08:43:41;;;;;;;27.40;11.68;;;7.70;99.90;;;;;;5108851;28;20281;-46
2024/03/04 08:46:07;;;;;;;22.80;9.35;;;7.90;99.90;;;;;;5108818;28;20032;-47
2024/03/04 08:48:33;;;;;;;18.00;7.90;;;7.70;99.90;;;;;;5108708;28;20031;-45
2024/03/04 08:50:58;;;;;;;17.27;7.43;;;7.80;99.90;;;;;;5108906;28;20083;-48
2024/03/04 08:53:24;;;;;;;11.48;5.93;;;7.80;99.90;;;;;;5108670;28;20032;-46
2024/03/04 08:55:50;;;;;;;10.48;4.85;;;7.70;99.90;;;;;;5108617;28;20088;-48
2024/03/04 08:58:16;;;;;;;8.18;4.85;;;7.60;99.90;;;;;;5107587;28;20344;-47
2024/03/04 09:00:41;;;;;;;8.88;4.22;;;7.50;99.90;;;;;;5108954;28;20058;-46
2024/03/04 09:03:07;;;;;;;5.35;2.97;;;7.40;99.90;;;;;;5108656;28;20358;-47
2024/03/04 09:05:33;;;;;;;5.95;3.50;;;7.40;99.90;;;;;;5108291;28;20059;-48
2024/03/04 09:08:05;;;;;;;11.20;5.80;;;7.40;99.90;;;;;;5108428;28;20200;-46
2024/03/04 09:10:30;;;;;;;9.75;4.78;;;7.40;99.90;;;;;;5108278;28;20339;-46
2024/03/04 09:12:56;;;;;;;11.38;5.68;;;7.50;99.90;;;;;;5108444;28;20032;-47
2024/03/04 09:15:23;;;;;;;11.60;5.30;;;7.60;99.90;;;;;;5108410;28;20036;-44
2024/03/04 09:17:49;;;;;;;13.13;4.82;;;7.70;99.90;;;;;;5108021;28;20019;-46
2024/03/04 09:20:15;;;;;;;9.80;3.92;;;7.80;99.90;;;;;;5108168;28;20040;-47
2024/03/04 09:22:41;;;;;;;6.80;3.00;;;7.90;99.90;;;;;;5107985;28;20104;-46
2024/03/04 09:25:06;;;;;;;4.63;3.45;;;8.00;99.90;;;;;;5107640;28;20044;-46
2024/03/04 09:27:32;;;;;;;4.38;1.60;;;8.10;99.90;;;;;;5107946;28;20106;-45
2024/03/04 09:29:58;;;;;;;3.10;1.60;;;8.30;99.90;;;;;;5107862;28;20285;-48
2024/03/04 09:32:25;;;;;;;4.70;2.00;;;8.30;99.90;;;;;;5106826;28;20084;-45
2024/03/04 09:34:51;;;;;;;2.72;1.55;;;8.30;99.90;;;;;;5107546;28;20035;-45
2024/03/04 09:37:16;;;;;;;3.70;1.70;;;8.40;99.90;;;;;;5106484;28;20032;-44
2024/03/04 09:39:42;;;;;;;4.03;1.70;;;8.60;99.90;;;;;;5107875;28;20035;-48
2024/03/04 09:42:08;;;;;;;2.30;1.40;;;8.60;99.90;;;;;;5106793;28;20020;-45
2024/03/04 09:44:34;;;;;;;3.50;1.27;;;8.60;99.90;;;;;;5107387;28;20040;-48
2024/03/04 09:46:59;;;;;;;4.53;2.58;;;8.60;99.90;;;;;;5107201;28;20024;-48
2024/03/04 09:49:29;;;;;;;2.92;1.48;;;8.60;99.90;;;;;;5107555;28;20028;-48
2024/03/04 09:51:59;;;;;;;1.63;1.23;;;8.50;99.90;;;;;;5106500;28;20189;-48
2024/03/04 09:54:27;;;;;;;1.10;1.00;;;8.50;99.90;;;;;;5106810;28;20032;-45
2024/03/04 09:56:52;;;;;;;3.00;1.35;;;8.50;99.90;;;;;;5106386;28;20362;-45
2024/03/04 09:59:18;;;;;;;2.42;1.70;;;8.60;99.90;;;;;;5106424;28;20040;-46
2024/03/04 10:01:44;;;;;;;3.47;1.90;;;8.70;99.90;;;;;;5107367;28;20222;-44
2024/03/04 10:04:10;;;;;;;4.05;2.10;;;8.80;99.90;;;;;;5106339;28;20089;-46
2024/03/04 10:06:36;;;;;;;2.95;1.77;;;8.80;99.90;;;;;;5088972;28;20039;-46
2024/03/04 10:09:01;;;;;;;4.40;1.70;;;8.80;99.90;;;;;;5107206;28;20232;-46
2024/03/04 10:11:27;;;;;;;2.05;1.27;;;8.80;99.90;;;;;;5107397;28;20047;-48
2024/03/04 10:13:52;;;;;;;2.92;1.52;;;8.60;99.90;;;;;;5107104;28;20036;-46
2024/03/04 10:16:18;;;;;;;2.53;1.40;;;8.60;99.90;;;;;;5106159;28;20071;-47
2024/03/04 10:18:57;;;;;;;3.88;1.58;;;8.60;99.90;;;;;;5089178;28;20070;-45
2024/03/04 10:21:23;;;;;;;1.92;1.13;;;8.60;99.90;;;;;;5106929;28;20031;-47
2024/03/04 10:23:48;;;;;;;3.75;1.42;;;8.50;99.90;;;;;;5106364;28;20051;-46
2024/03/04 10:26:14;;;;;;;2.50;1.17;;;8.30;99.90;;;;;;5106098;28;20083;-46
2024/03/04 10:28:41;;;;;;;2.35;1.23;;;8.20;99.90;;;;;;5106884;28;20035;-46
2024/03/04 10:31:10;;;;;;;2.05;1.30;;;8.20;99.90;;;;;;5106852;28;20020;-47
2024/03/04 10:33:36;;;;;;;1.33;1.10;;;8.30;99.90;;;;;;5106693;28;20074;-48
2024/03/04 10:36:18;;;;;;;1.42;1.20;;;8.40;99.90;;;;;;5106989;28;20097;-46
2024/03/04 10:38:47;;;;;;;1.60;1.20;;;8.40;99.90;;;;;;5107004;28;20051;-47
2024/03/04 10:41:19;;;;;;;2.45;1.42;;;8.50;99.90;;;;;;5106306;28;20059;-47
2024/03/04 10:43:45;;;;;;;1.50;1.20;;;8.60;99.90;;;;;;5105572;28;20251;-48
2024/03/04 10:46:11;;;;;;;2.47;1.55;;;8.90;99.90;;;;;;5106395;28;20024;-47
2024/03/04 10:48:47;;;;;;;1.88;1.42;;;9.20;99.90;;;;;;5106565;28;20016;-46
2024/03/04 10:51:16;;;;;;;2.30;1.60;;;9.60;99.90;;;;;;5106382;28;20065;-47
2024/03/04 10:53:42;;;;;;;2.47;1.17;;;10.30;99.90;;;;;;5106022;28;20296;-46
2024/03/04 10:56:08;;;;;;;2.13;1.20;;;10.90;99.90;;;;;;5106485;28;20043;-46
2024/03/04 10:58:37;;;;;;;2.67;1.10;;;11.60;99.90;;;;;;5088368;28;20099;-46
2024/03/04 11:01:07;;;;;;;2.65;1.15;;;12.30;99.90;;;;;;5105329;28;20281;-48
2024/03/04 11:03:32;;;;;;;1.25;1.15;;;12.70;99.90;;;;;;5106251;28;20036;-46
2024/03/04 11:05:58;;;;;;;2.45;1.00;;;13.00;99.90;;;;;;5104702;28;20040;-46
2024/03/04 11:08:35;;;;;;;1.45;0.95;;;13.10;99.90;;;;;;5104950;28;20020;-44
2024/03/04 11:11:12;;;;;;;3.78;1.27;;;13.40;99.90;;;;;;5105851;28;20032;-48
2024/03/04 11:14:04;;;;;;;0.80;0.80;;;13.70;99.90;;;;;;5104879;28;20087;-46
2024/03/04 11:16:49;;;;;;;2.67;0.95;;;13.70;99.90;;;;;;5088143;28;20036;-46
2024/03/04 11:19:31;;;;;;;1.23;0.80;;;14.00;99.90;;;;;;5104887;28;20027;-48
2024/03/04 11:21:57;;;;;;;1.27;0.98;;;14.30;99.90;;;;;;5105004;28;20059;-49
2024/03/04 11:24:22;;;;;;;2.97;1.27;;;14.60;99.90;;;;;;5105439;28;20052;-47
2024/03/04 11:26:48;;;;;;;2.15;0.80;;;14.30;99.90;;;;;;5087782;28;20055;-46
2024/03/04 11:29:14;;;;;;;2.15;0.90;;;13.90;99.90;;;;;;5105247;28;20051;-49
2024/03/04 11:31:40;;;;;;;6.70;2.47;;;13.70;99.90;;;;;;5104526;28;20096;-45
2024/03/04 11:34:09;;;;;;;1.45;0.98;;;13.70;99.90;;;;;;5105662;28;20189;-47
2024/03/04 11:36:39;;;;;;;3.07;1.10;;;14.00;99.90;;;;;;5105600;28;20142;-49
2024/03/04 11:39:07;;;;;;;1.58;1.00;;;14.10;99.90;;;;;;5105685;28;20091;-46
2024/03/04 11:41:47;;;;;;;4.90;1.20;;;13.80;99.90;;;;;;5104580;28;20036;-49
2024/03/04 11:44:13;;;;;;;2.13;0.80;;;14.20;99.90;;;;;;5105131;28;20047;-49
2024/03/04 11:46:42;;;;;;;2.05;0.80;;;15.00;99.90;;;;;;5105399;28;20035;-49
2024/03/04 11:49:30;;;;;;;1.60;0.70;;;14.90;99.90;;;;;;5104906;28;20222;-49
2024/03/04 11:52:05;;;;;;;2.47;0.93;;;15.40;99.90;;;;;;5105576;28;20103;-49
2024/03/04 11:54:39;;;;;;;3.70;1.00;;;16.40;99.90;;;;;;5105335;28;20043;-49
2024/03/04 11:57:05;;;;;;;0.90;0.70;;;16.80;99.90;;;;;;5104846;28;20028;-48
2024/03/04 11:59:31;;;;;;;2.08;0.90;;;16.00;99.90;;;;;;5105474;28;20048;-48
2024/03/04 12:01:57;;;;;;;4.45;0.90;;;15.70;99.90;;;;;;5105088;28;20298;-48
2024/03/04 12:04:24;;;;;;;1.73;1.00;;;15.40;99.90;;;;;;5105640;28;20040;-50
2024/03/04 12:06:50;;;;;;;2.90;1.08;;;15.40;99.90;;;;;;5109009;28;20055;-47
2024/03/04 12:09:16;;;;;;;1.45;0.70;;;14.70;99.90;;;;;;5109351;28;20036;-49
2024/03/04 12:11:42;;;;;;;3.88;1.42;;;14.30;99.90;;;;;;5109012;28;20046;-48
2024/03/04 12:14:08;;;;;;;5.72;1.10;;;14.40;99.90;;;;;;5109456;28;20095;-48
2024/03/04 12:16:34;;;;;;;4.32;0.98;;;13.90;99.90;;;;;;5108636;28;20031;-47
2024/03/04 12:19:00;;;;;;;5.50;1.20;;;14.40;99.90;;;;;;5109026;28;20032;-48
2024/03/04 12:21:27;;;;;;;5.40;1.15;;;14.80;99.90;;;;;;5108910;28;20020;-47
2024/03/04 12:23:55;;;;;;;1.38;0.95;;;15.10;99.90;;;;;;5108758;28;20210;-46
2024/03/04 12:26:21;;;;;;;1.48;0.85;;;15.20;99.90;;;;;;5108845;28;20054;-47
2024/03/04 12:29:00;;;;;;;1.30;0.80;;;15.30;99.90;;;;;;5109096;28;20282;-46
2024/03/04 12:31:26;;;;;;;7.45;2.80;;;15.70;99.90;;;;;;5108997;28;20161;-47
2024/03/04 12:33:55;;;;;;;2.58;1.00;;;14.40;99.90;;;;;;5108862;28;20038;-49
2024/03/04 12:36:27;;;;;;;3.70;1.35;;;14.40;99.90;;;;;;5109062;28;20039;-47
2024/03/04 12:38:56;;;;;;;3.33;1.00;;;13.90;99.90;;;;;;5108592;28;20093;-49
2024/03/04 12:41:24;;;;;;;3.92;0.98;;;13.70;99.90;;;;;;5108650;28;20032;-49
2024/03/04 12:43:50;;;;;;;3.72;1.00;;;13.80;99.90;;;;;;5108479;28;20031;-49
2024/03/04 12:46:16;;;;;;;2.25;0.93;;;13.40;99.90;;;;;;5108147;28;20159;-47
2024/03/04 12:48:42;;;;;;;2.08;0.93;;;12.90;99.90;;;;;;5108256;28;20039;-46
2024/03/04 12:51:08;;;;;;;2.33;1.00;;;13.00;99.90;;;;;;5108811;28;20028;-49
2024/03/04 12:53:33;;;;;;;3.95;1.00;;;13.00;99.90;;;;;;5108876;28;20102;-48